createdAt,value
2022-10-12T00:00:29.729Z,38.13
2022-10-12T00:02:56.179Z,38.17
2022-10-12T00:05:22.595Z,38.33
2022-10-12T00:07:48.963Z,38.19
2022-10-12T00:10:15.619Z,38.13
2022-10-12T00:12:42.527Z,38.50
2022-10-12T00:15:09.317Z,38.59
2022-10-12T00:17:35.826Z,38.26
2022-10-12T00:20:04.530Z,38.09
2022-10-12T00:22:30.986Z,38.09
2022-10-12T00:24:57.408Z,38.43
2022-10-12T00:27:23.846Z,37.91
2022-10-12T00:29:50.238Z,37.81
2022-10-12T00:32:16.694Z,38.37
2022-10-12T00:34:43.180Z,38.22
2022-10-12T00:37:09.691Z,38.41
2022-10-12T00:39:36.275Z,38.04
2022-10-12T00:42:02.960Z,38.38
2022-10-12T00:44:46.939Z,38.12
2022-10-12T00:47:30.821Z,38.13
2022-10-12T00:50:08.866Z,38.32
2022-10-12T00:52:53.975Z,37.93
2022-10-12T00:55:23.067Z,38.60
2022-10-12T00:57:51.790Z,37.91
2022-10-12T01:00:19.294Z,37.91
2022-10-12T01:02:47.522Z,37.97
2022-10-12T01:05:14.803Z,37.97
2022-10-12T01:07:41.548Z,38.00
2022-10-12T01:10:08.716Z,38.07
2022-10-12T01:12:37.131Z,38.36
2022-10-12T01:15:04.642Z,37.70
2022-10-12T01:17:44.113Z,38.31
2022-10-12T01:20:36.459Z,38.01
2022-10-12T01:23:21.062Z,38.01
2022-10-12T01:26:06.726Z,37.94
2022-10-12T01:28:51.789Z,37.95
2022-10-12T01:31:33.186Z,37.62
2022-10-12T01:34:19.885Z,38.08
2022-10-12T01:36:52.453Z,37.74
2022-10-12T01:39:28.391Z,38.18
2022-10-12T01:42:00.195Z,38.28
2022-10-12T01:44:27.108Z,38.27
2022-10-12T01:46:55.795Z,38.25
2022-10-12T01:49:26.712Z,38.21
2022-10-12T01:52:13.454Z,37.62
2022-10-12T01:55:01.733Z,38.10
2022-10-12T01:57:54.130Z,37.62
2022-10-12T02:00:20.612Z,37.80
2022-10-12T02:03:05.800Z,37.62
2022-10-12T02:05:35.153Z,37.85
2022-10-12T02:08:09.751Z,38.15
2022-10-12T02:11:04.967Z,38.05
2022-10-12T02:13:36.054Z,38.10
2022-10-12T02:16:06.605Z,37.91
2022-10-12T02:18:36.815Z,37.66
2022-10-12T02:21:04.554Z,37.66
2022-10-12T02:23:30.971Z,37.61
2022-10-12T02:25:59.519Z,38.05
2022-10-12T02:28:29.509Z,37.73
2022-10-12T02:31:02.507Z,37.86
2022-10-12T02:33:44.151Z,37.55
2022-10-12T02:36:16.437Z,37.98
2022-10-12T02:39:06.007Z,37.68
2022-10-12T02:41:44.780Z,37.75
2022-10-12T02:44:15.079Z,37.59
2022-10-12T02:46:43.091Z,37.85
2022-10-12T02:49:11.631Z,37.59
2022-10-12T02:51:40.948Z,37.98
2022-10-12T02:54:07.844Z,38.09
2022-10-12T02:56:34.219Z,37.64
2022-10-12T02:59:00.613Z,37.64
2022-10-12T03:01:27.122Z,38.05
2022-10-12T03:03:53.542Z,38.05
2022-10-12T03:06:20.280Z,37.34
2022-10-12T03:08:46.823Z,37.61
2022-10-12T03:11:14.124Z,37.52
2022-10-12T03:13:40.543Z,37.47
2022-10-12T03:16:09.643Z,37.51
2022-10-12T03:18:36.577Z,37.47
2022-10-12T03:21:03.490Z,37.68
2022-10-12T03:23:30.206Z,38.07
2022-10-12T03:25:56.603Z,37.87
2022-10-12T03:28:23.063Z,37.79
2022-10-12T03:30:49.492Z,37.56
2022-10-12T03:33:15.895Z,37.97
2022-10-12T03:35:45.531Z,37.56
2022-10-12T03:38:12.751Z,37.84
2022-10-12T03:40:39.349Z,37.40
2022-10-12T03:43:05.719Z,37.40
2022-10-12T03:45:32.526Z,37.50
2022-10-12T03:48:03.717Z,37.62
2022-10-12T03:50:33.498Z,37.84
2022-10-12T03:52:59.883Z,37.84
2022-10-12T03:55:26.375Z,37.73
2022-10-12T03:57:54.544Z,37.63
2022-10-12T04:00:21.198Z,37.58
2022-10-12T04:02:47.635Z,37.52
2022-10-12T04:05:14.211Z,37.60
2022-10-12T04:07:40.951Z,37.58
2022-10-12T04:10:08.263Z,37.97
2022-10-12T04:12:34.641Z,38.11
2022-10-12T04:15:01.060Z,37.57
2022-10-12T04:17:27.451Z,37.87
2022-10-12T04:19:53.858Z,37.74
2022-10-12T04:22:20.302Z,37.57
2022-10-12T04:24:46.678Z,37.73
2022-10-12T04:27:13.125Z,37.71
2022-10-12T04:29:39.539Z,37.83
2022-10-12T04:32:11.512Z,37.91
2022-10-12T04:34:38.827Z,38.20
2022-10-12T04:37:05.199Z,38.19
2022-10-12T04:39:31.591Z,37.89
2022-10-12T04:41:57.960Z,38.20
2022-10-12T04:44:28.419Z,38.32
2022-10-12T04:46:57.609Z,38.50
2022-10-12T04:49:24.055Z,38.58
2022-10-12T04:51:50.420Z,38.23
2022-10-12T04:54:16.835Z,38.63
2022-10-12T04:56:47.734Z,38.41
2022-10-12T04:59:14.681Z,38.60
2022-10-12T05:01:41.126Z,38.30
2022-10-12T05:04:07.622Z,38.31
2022-10-12T05:06:34.032Z,38.54
2022-10-12T05:09:00.411Z,38.60
2022-10-12T05:11:26.791Z,38.39
2022-10-12T05:13:53.186Z,38.69
2022-10-12T05:16:19.604Z,38.54
2022-10-12T05:18:46.021Z,38.34
2022-10-12T05:21:12.504Z,38.50
2022-10-12T05:23:38.964Z,38.79
2022-10-12T05:26:05.542Z,38.76
2022-10-12T05:28:34.828Z,38.18
2022-10-12T05:31:03.456Z,38.65
2022-10-12T05:33:29.975Z,38.42
2022-10-12T05:35:56.748Z,38.58
2022-10-12T05:38:23.342Z,38.66
2022-10-12T05:40:49.727Z,38.68
2022-10-12T05:43:16.101Z,38.91
2022-10-12T05:45:43.030Z,38.64
2022-10-12T05:48:09.442Z,38.49
2022-10-12T05:50:35.831Z,38.83
2022-10-12T05:53:02.228Z,38.54
2022-10-12T05:55:28.688Z,38.75
2022-10-12T05:57:55.117Z,38.70
2022-10-12T06:00:21.994Z,38.24
2022-10-12T06:02:48.482Z,38.38
2022-10-12T06:05:14.897Z,38.37
2022-10-12T06:07:41.278Z,38.20
2022-10-12T06:10:08.200Z,38.34
2022-10-12T06:12:34.684Z,38.59
2022-10-12T06:15:01.131Z,38.29
2022-10-12T06:17:27.512Z,38.22
2022-10-12T06:19:53.911Z,38.23
2022-10-12T06:22:20.293Z,38.31
2022-10-12T06:24:46.719Z,38.57
2022-10-12T06:27:14.163Z,38.30
2022-10-12T06:29:40.524Z,38.41
2022-10-12T06:32:07.088Z,37.80
2022-10-12T06:34:33.475Z,38.29
2022-10-12T06:37:01.976Z,38.52
2022-10-12T06:39:28.715Z,38.22
2022-10-12T06:41:55.079Z,38.45
2022-10-12T06:44:22.529Z,38.44
2022-10-12T06:46:50.116Z,38.45
2022-10-12T06:49:17.355Z,38.12
2022-10-12T06:51:43.801Z,38.35
2022-10-12T06:54:10.187Z,38.05
2022-10-12T06:56:38.173Z,37.82
2022-10-12T06:59:04.568Z,38.30
2022-10-12T07:01:31.127Z,38.29
2022-10-12T07:04:00.672Z,37.83
2022-10-12T07:06:27.477Z,37.98
2022-10-12T07:08:54.774Z,37.95
2022-10-12T07:11:21.685Z,38.16
2022-10-12T07:13:48.174Z,37.98
2022-10-12T07:16:15.195Z,37.92
2022-10-12T07:18:42.017Z,37.98
2022-10-12T07:21:08.451Z,37.84
2022-10-12T07:23:35.522Z,38.29
2022-10-12T07:26:01.963Z,38.02
2022-10-12T07:28:28.414Z,38.20
2022-10-12T07:30:54.939Z,37.72
2022-10-12T07:33:21.329Z,38.14
2022-10-12T07:36:12.664Z,37.79
2022-10-12T07:38:40.242Z,38.52
2022-10-12T07:41:06.688Z,37.74
2022-10-12T07:43:33.522Z,37.42
2022-10-12T07:45:59.895Z,38.06
2022-10-12T07:48:26.649Z,38.09
2022-10-12T07:50:53.134Z,37.82
2022-10-12T07:53:19.656Z,38.18
2022-10-12T07:55:46.042Z,38.10
2022-10-12T07:58:12.951Z,37.93
2022-10-12T08:00:39.795Z,37.80
2022-10-12T08:03:06.198Z,37.91
2022-10-12T08:05:32.590Z,37.60
2022-10-12T08:08:00.184Z,37.67
2022-10-12T08:10:26.852Z,37.69
2022-10-12T08:12:53.249Z,37.56
2022-10-12T08:15:19.678Z,37.51
2022-10-12T08:17:46.097Z,37.68
2022-10-12T08:20:12.544Z,37.97
2022-10-12T08:22:38.958Z,37.56
2022-10-12T08:25:06.467Z,37.74
2022-10-12T08:27:32.851Z,37.83
2022-10-12T08:29:59.257Z,37.68
2022-10-12T08:32:25.962Z,37.50
2022-10-12T08:34:52.319Z,37.62
2022-10-12T08:37:18.766Z,37.73
2022-10-12T08:39:45.223Z,37.98
2022-10-12T08:42:50.132Z,37.42
2022-10-12T08:45:46.257Z,37.69
2022-10-12T08:48:26.293Z,37.64
2022-10-12T08:53:51.079Z,37.34
2022-10-12T08:56:19.322Z,37.41
2022-10-12T08:58:47.112Z,37.85
2022-10-12T09:01:38.307Z,37.72
2022-10-12T09:04:31.336Z,37.64
2022-10-12T09:07:16.016Z,37.52
2022-10-12T09:09:45.343Z,37.27
2022-10-12T09:12:49.206Z,37.23
2022-10-12T09:15:23.057Z,37.44
2022-10-12T09:17:54.583Z,37.68
2022-10-12T09:20:25.878Z,37.73
2022-10-12T09:22:56.843Z,37.61
2022-10-12T09:25:27.955Z,37.28
2022-10-12T09:28:06.715Z,37.29
2022-10-12T09:30:37.731Z,37.38
2022-10-12T09:33:40.885Z,37.52
2022-10-12T09:36:11.222Z,37.59
2022-10-12T09:38:38.306Z,37.55
2022-10-12T09:41:04.927Z,37.25
2022-10-12T09:43:31.444Z,37.18
2022-10-12T09:46:05.251Z,37.43
2022-10-12T09:48:31.621Z,37.23
2022-10-12T09:51:01.928Z,37.29
2022-10-12T09:53:43.241Z,37.47
2022-10-12T09:56:22.014Z,37.10
2022-10-12T09:58:55.849Z,37.29
2022-10-12T10:01:31.380Z,37.34
2022-10-12T10:04:08.711Z,37.02
2022-10-12T10:06:37.224Z,37.38
2022-10-12T10:09:03.908Z,37.45
2022-10-12T10:11:31.609Z,37.45
2022-10-12T10:14:00.629Z,37.25
2022-10-12T10:16:29.657Z,37.47
2022-10-12T10:18:59.259Z,37.14
2022-10-12T10:21:35.937Z,37.25
2022-10-12T10:24:05.283Z,37.06
2022-10-12T10:26:52.111Z,36.91
2022-10-12T10:29:40.668Z,37.26
2022-10-12T10:32:26.400Z,37.30
2022-10-12T10:35:06.426Z,37.08
2022-10-12T10:37:33.474Z,37.07
2022-10-12T10:40:00.207Z,37.06
2022-10-12T10:42:31.538Z,37.29
2022-10-12T10:45:08.659Z,37.06
2022-10-12T10:47:43.395Z,37.15
2022-10-12T10:50:34.590Z,37.23
2022-10-12T10:53:04.009Z,37.11
2022-10-12T10:56:03.932Z,37.04
2022-10-12T10:58:45.431Z,36.99
2022-10-12T11:01:29.623Z,37.19
2022-10-12T11:04:16.559Z,37.08
2022-10-12T11:06:47.378Z,37.30
2022-10-12T11:09:24.605Z,36.91
2022-10-12T11:11:58.517Z,37.13
2022-10-12T11:14:36.864Z,36.68
2022-10-12T11:17:13.977Z,36.73
2022-10-12T11:20:04.234Z,37.14
2022-10-12T11:22:40.149Z,37.09
2022-10-12T11:25:21.417Z,36.98
2022-10-12T11:27:52.761Z,36.77
2022-10-12T11:30:24.617Z,37.31
2022-10-12T11:33:05.333Z,37.07
2022-10-12T11:35:35.390Z,36.84
2022-10-12T11:38:12.804Z,36.85
2022-10-12T11:41:09.310Z,37.13
2022-10-12T11:43:46.750Z,37.11
2022-10-12T11:46:18.077Z,37.02
2022-10-12T11:48:52.292Z,37.04
2022-10-12T11:51:18.590Z,36.97
2022-10-12T11:54:04.197Z,37.12
2022-10-12T11:56:41.009Z,37.18
2022-10-12T11:59:18.578Z,37.34
2022-10-12T12:01:47.663Z,37.12
2022-10-12T12:04:41.291Z,36.87
2022-10-12T12:07:27.914Z,36.87
2022-10-12T12:09:54.703Z,37.34
2022-10-12T12:12:27.074Z,36.88
2022-10-12T12:14:53.376Z,37.35
2022-10-12T12:17:19.704Z,37.02
2022-10-12T12:19:47.866Z,36.90
2022-10-12T12:22:30.135Z,36.91
2022-10-12T12:25:10.580Z,36.84
2022-10-12T12:27:42.990Z,36.88
2022-10-12T12:30:18.449Z,36.93
2022-10-12T12:33:01.434Z,36.78
2022-10-12T12:35:29.770Z,36.98
2022-10-12T12:38:13.507Z,37.03
2022-10-12T12:40:56.976Z,36.78
2022-10-12T12:43:29.405Z,36.80
2022-10-12T12:46:08.073Z,36.88
2022-10-12T12:48:43.502Z,36.83
2022-10-12T12:51:35.752Z,36.80
2022-10-12T12:54:12.964Z,37.20
2022-10-12T12:56:45.135Z,36.97
2022-10-12T12:59:33.607Z,37.12
2022-10-12T13:02:38.391Z,36.77
2022-10-12T13:05:42.498Z,36.85
2022-10-12T13:08:22.616Z,36.91
2022-10-12T13:11:28.271Z,36.68
2022-10-12T13:14:01.584Z,37.31
2022-10-12T13:17:23.539Z,37.14
2022-10-12T13:19:22.011Z,37.28
2022-10-12T13:21:52.652Z,37.26
2022-10-12T13:24:27.527Z,37.36
2022-10-12T13:27:19.414Z,36.84
2022-10-12T13:29:55.353Z,37.28
2022-10-12T13:32:55.795Z,36.76
2022-10-12T13:35:40.814Z,37.08
2022-10-12T13:38:21.342Z,36.76
2022-10-12T13:41:07.997Z,36.92
2022-10-12T13:43:54.497Z,36.75
2022-10-12T13:46:47.287Z,36.83
2022-10-12T13:49:35.199Z,36.87
2022-10-12T13:52:16.230Z,36.89
2022-10-12T13:54:48.579Z,37.25
2022-10-12T13:57:33.389Z,36.94
2022-10-12T14:00:15.374Z,36.91
2022-10-12T14:02:43.798Z,36.92
2022-10-12T14:05:18.085Z,37.00
2022-10-12T14:07:45.584Z,36.88
2022-10-12T14:10:36.273Z,36.79
2022-10-12T14:13:04.875Z,36.39
2022-10-12T14:15:37.104Z,36.32
2022-10-12T14:18:04.468Z,36.32
2022-10-12T14:20:37.593Z,36.37
2022-10-12T14:23:12.439Z,36.81
2022-10-12T14:25:50.034Z,36.70
2022-10-12T14:28:29.352Z,36.40
2022-10-12T14:30:56.145Z,36.45
2022-10-12T14:33:24.414Z,36.62
2022-10-12T14:35:51.782Z,36.98
2022-10-12T14:38:42.393Z,36.61
2022-10-12T14:41:35.594Z,36.72
2022-10-12T14:44:17.475Z,36.88
2022-10-12T14:46:54.322Z,37.32
2022-10-12T14:49:38.881Z,36.85
2022-10-12T14:52:05.462Z,37.19
2022-10-12T14:54:31.976Z,37.85
2022-10-12T14:57:11.601Z,37.25
2022-10-12T14:59:38.244Z,37.68
2022-10-12T15:02:14.924Z,37.89
2022-10-12T15:04:41.407Z,38.43
2022-10-12T15:07:23.178Z,37.60
2022-10-12T15:09:50.077Z,38.09
2022-10-12T15:12:22.026Z,38.15
2022-10-12T15:14:49.430Z,38.36
2022-10-12T15:17:18.311Z,38.37
2022-10-12T15:19:46.167Z,37.82
2022-10-12T15:22:26.560Z,38.05
2022-10-12T15:24:54.312Z,38.09
2022-10-12T15:27:20.791Z,38.28
2022-10-12T15:29:48.236Z,38.28
2022-10-12T15:32:17.307Z,37.80
2022-10-12T15:34:44.024Z,38.17
2022-10-12T15:37:10.494Z,38.50
2022-10-12T15:39:37.105Z,38.00
2022-10-12T15:42:04.445Z,38.53
2022-10-12T15:44:30.915Z,38.28
2022-10-12T15:46:57.331Z,38.81
2022-10-12T15:49:24.350Z,39.01
2022-10-12T15:51:53.586Z,38.63
2022-10-12T15:54:20.010Z,39.37
2022-10-12T15:56:46.742Z,39.17
2022-10-12T15:59:13.203Z,39.39
2022-10-12T16:01:39.930Z,39.74
2022-10-12T16:04:06.714Z,39.60
2022-10-12T16:06:33.670Z,39.93
2022-10-12T16:09:00.082Z,39.85
2022-10-12T16:11:26.560Z,39.96
2022-10-12T16:13:56.726Z,39.86
2022-10-12T16:16:23.776Z,40.28
2022-10-12T16:18:51.414Z,40.50
2022-10-12T16:21:17.811Z,40.04
2022-10-12T16:23:44.243Z,40.60
2022-10-12T16:26:14.504Z,40.46
2022-10-12T16:28:41.341Z,40.32
2022-10-12T16:31:15.283Z,40.83
2022-10-12T16:33:42.085Z,40.36
2022-10-12T16:36:10.883Z,40.44
2022-10-12T16:38:37.288Z,40.75
2022-10-12T16:41:09.019Z,40.71
2022-10-12T16:43:35.427Z,40.46
2022-10-12T16:46:01.807Z,40.40
2022-10-12T16:48:28.207Z,40.74
2022-10-12T16:50:54.581Z,40.56
2022-10-12T16:53:20.985Z,40.83
2022-10-12T16:55:47.419Z,40.76
2022-10-12T16:58:13.935Z,40.95
2022-10-12T17:00:42.214Z,40.55
2022-10-12T17:03:08.890Z,40.69
2022-10-12T17:05:35.277Z,40.87
2022-10-12T17:08:01.670Z,40.93
2022-10-12T17:10:28.101Z,41.08
2022-10-12T17:12:54.482Z,41.27
2022-10-12T17:15:20.879Z,40.84
2022-10-12T17:17:47.279Z,41.22
2022-10-12T17:20:13.724Z,41.04
2022-10-12T17:22:40.204Z,41.47
2022-10-12T17:25:06.902Z,41.19
2022-10-12T17:27:33.333Z,41.46
2022-10-12T17:29:59.815Z,41.24
2022-10-12T17:32:29.166Z,41.33
2022-10-12T17:34:55.535Z,41.25
2022-10-12T17:37:22.093Z,41.70
2022-10-12T17:39:50.176Z,41.38
2022-10-12T17:42:16.920Z,41.47
2022-10-12T17:44:43.559Z,41.18
2022-10-12T17:47:09.983Z,41.62
2022-10-12T17:49:36.423Z,41.59
2022-10-12T17:52:02.831Z,41.29
2022-10-12T17:54:29.508Z,41.51
2022-10-12T17:56:56.511Z,41.26
2022-10-12T17:59:23.623Z,41.63
2022-10-12T18:01:51.555Z,41.47
2022-10-12T18:04:18.520Z,41.68
2022-10-12T18:06:45.768Z,41.52
2022-10-12T18:09:12.721Z,41.18
2022-10-12T18:11:39.485Z,40.80
2022-10-12T18:14:08.849Z,41.23
2022-10-12T18:16:36.248Z,40.89
2022-10-12T18:19:05.036Z,41.07
2022-10-12T18:21:32.823Z,40.83
2022-10-12T18:24:06.757Z,40.71
2022-10-12T18:26:33.631Z,40.73
2022-10-12T18:29:01.740Z,40.88
2022-10-12T18:31:29.819Z,41.47
2022-10-12T18:33:57.887Z,41.39
2022-10-12T18:36:24.765Z,41.41
2022-10-12T18:38:51.518Z,41.30
2022-10-12T18:41:26.684Z,40.78
2022-10-12T18:43:58.049Z,40.90
2022-10-12T18:46:27.255Z,41.15
2022-10-12T18:48:53.944Z,41.15
2022-10-12T18:51:22.579Z,40.73
2022-10-12T18:53:49.879Z,40.99
2022-10-12T18:56:16.922Z,40.79
2022-10-12T18:58:43.443Z,41.36
2022-10-12T19:01:11.694Z,41.12
2022-10-12T19:03:39.132Z,41.04
2022-10-12T19:06:08.887Z,40.76
2022-10-12T19:08:36.541Z,41.46
2022-10-12T19:11:08.173Z,40.61
2022-10-12T19:13:36.006Z,41.15
2022-10-12T19:16:08.162Z,40.86
2022-10-12T19:18:36.411Z,41.04
2022-10-12T19:21:07.778Z,40.93
2022-10-12T19:23:34.618Z,41.00
2022-10-12T19:26:14.476Z,40.90
2022-10-12T19:28:40.919Z,40.79
2022-10-12T19:31:09.984Z,41.10
2022-10-12T19:33:36.503Z,40.70
2022-10-12T19:36:08.400Z,40.60
2022-10-12T19:38:35.496Z,40.57
2022-10-12T19:41:02.398Z,40.85
2022-10-12T19:43:29.295Z,40.82
2022-10-12T19:45:55.747Z,41.21
2022-10-12T19:48:22.158Z,41.28
2022-10-12T19:50:57.342Z,40.57
2022-10-12T19:53:23.735Z,40.98
2022-10-12T19:55:51.054Z,41.21
2022-10-12T19:58:17.473Z,41.13
2022-10-12T20:00:43.955Z,40.71
2022-10-12T20:03:10.341Z,41.09
2022-10-12T20:05:37.839Z,41.22
2022-10-12T20:08:04.223Z,41.05
2022-10-12T20:10:30.608Z,41.23
2022-10-12T20:12:57.060Z,41.44
2022-10-12T20:15:23.436Z,41.11
2022-10-12T20:17:49.815Z,40.97
2022-10-12T20:20:16.271Z,41.10
2022-10-12T20:22:42.655Z,41.28
2022-10-12T20:25:09.953Z,41.14
2022-10-12T20:27:36.610Z,41.45
2022-10-12T20:30:03.864Z,41.31
2022-10-12T20:32:30.255Z,40.99
2022-10-12T20:34:57.119Z,41.10
2022-10-12T20:37:23.719Z,41.42
2022-10-12T20:39:51.302Z,41.23
2022-10-12T20:42:21.646Z,40.89
2022-10-12T20:44:48.621Z,41.24
2022-10-12T20:47:15.043Z,41.30
2022-10-12T20:49:42.127Z,41.21
2022-10-12T20:52:08.834Z,41.26
2022-10-12T20:54:36.133Z,40.82
2022-10-12T20:57:03.986Z,40.74
2022-10-12T20:59:31.561Z,40.92
2022-10-12T21:01:57.926Z,40.80
2022-10-12T21:04:25.412Z,40.76
2022-10-12T21:06:51.914Z,41.29
2022-10-12T21:09:18.325Z,41.12
2022-10-12T21:11:44.758Z,40.84
2022-10-12T21:14:15.639Z,41.09
2022-10-12T21:16:42.115Z,41.51
2022-10-12T21:19:11.380Z,41.47
2022-10-12T21:21:37.795Z,41.33
2022-10-12T21:24:05.063Z,41.03
2022-10-12T21:26:31.749Z,40.83
2022-10-12T21:29:01.333Z,40.81
2022-10-12T21:31:32.381Z,40.74
2022-10-12T21:34:04.267Z,40.77
2022-10-12T21:36:31.971Z,40.50
2022-10-12T21:38:58.493Z,40.95
2022-10-12T21:41:27.023Z,40.83
2022-10-12T21:43:54.419Z,40.70
2022-10-12T21:46:26.918Z,40.45
2022-10-12T21:48:53.873Z,40.64
2022-10-12T21:51:21.695Z,40.32
2022-10-12T21:53:49.035Z,40.36
2022-10-12T21:56:19.924Z,40.72
2022-10-12T21:58:47.375Z,40.28
2022-10-12T22:01:16.252Z,40.19
2022-10-12T22:03:43.978Z,40.11
2022-10-12T22:06:15.586Z,39.96
2022-10-12T22:08:42.924Z,40.25
2022-10-12T22:11:11.435Z,40.31
2022-10-12T22:13:38.483Z,40.20
2022-10-12T22:16:07.845Z,39.86
2022-10-12T22:18:35.111Z,39.92
2022-10-12T22:21:14.251Z,39.99
2022-10-12T22:23:41.616Z,40.09
2022-10-12T22:26:12.342Z,40.01
2022-10-12T22:28:39.019Z,40.19
2022-10-12T22:31:09.906Z,40.21
2022-10-12T22:33:37.258Z,39.85
2022-10-12T22:36:05.762Z,39.96
2022-10-12T22:38:32.745Z,39.77
2022-10-12T22:41:01.465Z,39.54
2022-10-12T22:43:29.060Z,39.49
2022-10-12T22:45:56.190Z,39.83
2022-10-12T22:48:23.809Z,39.99
2022-10-12T22:50:51.666Z,39.79
2022-10-12T22:53:20.481Z,39.81
2022-10-12T22:55:48.178Z,39.45
2022-10-12T22:58:15.415Z,39.74
2022-10-12T23:00:42.328Z,39.87
2022-10-12T23:03:08.746Z,39.36
2022-10-12T23:05:35.164Z,39.43
2022-10-12T23:08:01.539Z,39.66
2022-10-12T23:10:27.985Z,39.79
2022-10-12T23:12:54.378Z,39.49
2022-10-12T23:15:20.779Z,39.23
2022-10-12T23:17:47.144Z,39.38
2022-10-12T23:20:13.542Z,39.48
2022-10-12T23:22:39.935Z,39.20
2022-10-12T23:25:06.726Z,39.23
2022-10-12T23:27:33.185Z,39.25
2022-10-12T23:29:59.611Z,39.51
2022-10-12T23:32:26.002Z,39.02
2022-10-12T23:34:52.386Z,38.94
2022-10-12T23:37:18.750Z,39.60
2022-10-12T23:39:45.124Z,38.98
2022-10-12T23:42:11.494Z,39.03
2022-10-12T23:44:37.871Z,39.07
2022-10-12T23:47:04.294Z,39.00
2022-10-12T23:49:30.687Z,39.34
2022-10-12T23:51:57.083Z,39.17
2022-10-12T23:54:23.940Z,39.13
2022-10-12T23:56:50.342Z,38.94
2022-10-12T23:59:16.744Z,39.25
